Thunder radar more information blitzortung!


Radar de pluja more information rain snow radar


Visita la nostra xarxa de llocs de meteo:

Template documentation
and downloads

And another site



No particular awareness of the weather is required.    There are no Weather-warnings

Pagina Historial Weather Underground text

Diari Resum Novembre 10, 2017 Unitats:  Imperial    Mètric   Tant
« Previous Dia
SegĂźent Dia »
Diari Setmana Mensual Anual Personalitzada
  Maxima: Minima: Media:
Temperatura: TemperatureC °F 3.8 °F 10.4 °F
Punt de rosada: DewpointC °F -1.6 °F 1.6 °F
Humitat: Humidity % 47 % 54 %
Wind Speed: WindSpeedKMH mph 0.0 mph 3.4 mph
RĂ fegues de vent: WindSpeedGustKMH mph - -
Vent:- - SSE
Pression baro: PressurehPa in 1023.9 in -
Precipitacions: 0.0 in    
Historical Graphs
 
 
Dades de taula per Novembre 10, 2017
Temps Temperatura Punt de rosada Pression baro Vent Wind Speed RĂ fegues de vent Humitat Rainfall Rate (Hourly)
TemperatureC °F DewpointC °F PressurehPa in Calm     Humidity % HourlyPrecipMM in
00:04 5.1 °F -0.3 °F 1026.0 in Calm     68 % 0.0 in
00:05 4.3 °F -1.1 °F 1026.0 in NNE 1.6 mph 3.2 mph 68 % 0.0 in
00:15 4.3 °F -1.1 °F 1026.0 in NNE 3.2 mph 4.8 mph 68 % 0.0 in
00:25 4.2 °F -1.2 °F 1024.9 in NNE 1.6 mph 3.2 mph 68 % 0.0 in
00:35 4.1 °F -1.5 °F 1024.9 in NW 1.6 mph 1.6 mph 67 % 0.0 in
00:45 4.1 °F -1.3 °F 1026.0 in WNW 1.6 mph 1.6 mph 68 % 0.0 in
00:55 4.0 °F -1.4 °F 1026.0 in NNW 1.6 mph 3.2 mph 68 % 0.0 in
01:05 4.1 °F -1.3 °F 1026.0 in NNW 1.6 mph 6.4 mph 68 % 0.0 in
01:15 4.1 °F -1.3 °F 1024.9 in North 3.2 mph 4.8 mph 68 % 0.0 in
01:25 3.9 °F -1.5 °F 1026.0 in North 1.6 mph 4.8 mph 68 % 0.0 in
01:35 3.8 °F -1.6 °F 1026.0 in North 1.6 mph 1.6 mph 68 % 0.0 in
01:45 3.8 °F -1.6 °F 1024.9 in NNE 3.2 mph 4.8 mph 68 % 0.0 in
01:55 4.1 °F -1.3 °F 1026.0 in NE 3.2 mph 4.8 mph 68 % 0.0 in
02:05 4.4 °F -1.0 °F 1026.0 in NNE 1.6 mph 6.4 mph 68 % 0.0 in
02:15 4.7 °F -0.7 °F 1026.0 in North 1.6 mph 3.2 mph 68 % 0.0 in
02:25 5.0 °F -0.6 °F 1026.0 in NNE 4.8 mph 8.0 mph 67 % 0.0 in
02:35 5.6 °F -0.1 °F 1026.0 in Calm   3.2 mph 67 % 0.0 in
02:45 6.0 °F 0.3 °F 1026.0 in NE 1.6 mph 3.2 mph 67 % 0.0 in
02:55 6.3 °F 0.4 °F 1026.0 in NE 1.6 mph 3.2 mph 66 % 0.0 in
03:05 6.7 °F 0.6 °F 1026.0 in NNE 3.2 mph 4.8 mph 65 % 0.0 in
03:15 6.5 °F 0.2 °F 1027.0 in NNE 4.8 mph 9.7 mph 64 % 0.0 in
03:25 6.7 °F 0.4 °F 1026.0 in NNE 1.6 mph 8.0 mph 64 % 0.0 in
03:35 7.1 °F 0.7 °F 1026.0 in NNE 3.2 mph 9.7 mph 64 % 0.0 in
03:45 7.2 °F 0.6 °F 1026.0 in NE 4.8 mph 4.8 mph 63 % 0.0 in
03:55 7.8 °F 1.2 °F 1027.0 in NE 3.2 mph 6.4 mph 63 % 0.0 in
04:10 8.0 °F 1.2 °F 1027.0 in NE 4.8 mph 11.3 mph 62 % 0.0 in
04:20 8.3 °F 1.4 °F 1027.0 in NNE 4.8 mph 4.8 mph 62 % 0.0 in
04:30 8.7 °F 1.6 °F 1027.0 in NNE 3.2 mph 4.8 mph 61 % 0.0 in
10:38 8.9 °F 1.8 °F 1027.0 in NNW 5.6 mph 5.6 mph 61 % 0.0 in
10:43 9.1 °F 1.9 °F 1027.0 in NE 5.6 mph 5.6 mph 61 % 0.0 in
10:48 8.9 °F 1.6 °F 1027.0 in ENE 7.4 mph 7.4 mph 60 % 0.0 in
10:53 9.3 °F 1.9 °F 1027.0 in West 3.7 mph 3.7 mph 60 % 0.0 in
10:58 9.5 °F 2.1 °F 1027.0 in NE 3.7 mph 3.7 mph 60 % 0.0 in
11:03 9.8 °F 2.4 °F 1027.0 in NNE 6.1 mph 6.1 mph 60 % 0.0 in
11:08 9.6 °F 1.9 °F 1027.0 in NNE 3.7 mph 3.7 mph 59 % 0.0 in
11:13 9.6 °F 1.9 °F 1027.0 in NE 5.6 mph 5.6 mph 59 % 0.0 in
11:18 9.8 °F 1.9 °F 1027.0 in ENE 4.2 mph 4.2 mph 58 % 0.0 in
11:23 9.8 °F 1.9 °F 1027.0 in ESE 3.7 mph 3.7 mph 58 % 0.0 in
11:28 10.1 °F 2.2 °F 1027.0 in NNE 3.9 mph 3.9 mph 58 % 0.0 in
11:33 10.6 °F 2.7 °F 1027.0 in NNE 2.3 mph 2.3 mph 58 % 0.0 in
11:38 10.8 °F 2.8 °F 1027.0 in NNE 3.7 mph 3.7 mph 58 % 0.0 in
11:43 10.7 °F 2.5 °F 1027.0 in NNE 3.7 mph 3.7 mph 57 % 0.0 in
11:48 10.8 °F 2.6 °F 1027.0 in ESE 5.6 mph 5.6 mph 57 % 0.0 in
11:53 11.2 °F 3.0 °F 1027.0 in East 4.7 mph 4.7 mph 57 % 0.0 in
11:58 11.3 °F 3.1 °F 1027.0 in NE 5.6 mph 5.6 mph 57 % 0.0 in
12:03 11.4 °F 3.2 °F 1027.0 in NNE 4.2 mph 4.2 mph 57 % 0.0 in
12:08 11.7 °F 3.4 °F 1026.0 in NNE 3.7 mph 3.7 mph 57 % 0.0 in
12:13 11.7 °F 3.2 °F 1026.0 in NE 3.7 mph 3.7 mph 56 % 0.0 in
12:14 11.7 °F 3.2 °F 1026.0 in NE 3.7 mph 3.7 mph 56 % 0.0 in
12:19 11.8 °F 3.3 °F 1026.0 in SSE 3.7 mph 3.7 mph 56 % 0.0 in
12:24 12.1 °F 3.6 °F 1026.0 in West 1.9 mph 1.9 mph 56 % 0.0 in
12:29 12.4 °F 3.8 °F 1026.0 in NE 3.7 mph 3.7 mph 56 % 0.0 in
12:34 12.6 °F 4.1 °F 1026.0 in NNE 3.7 mph 3.7 mph 56 % 0.0 in
12:39 12.7 °F 4.2 °F 1026.0 in ENE 3.9 mph 3.9 mph 56 % 0.0 in
12:44 12.6 °F 3.6 °F 1026.0 in ESE 7.4 mph 7.4 mph 54 % 0.0 in
12:49 12.7 °F 3.9 °F 1026.0 in ENE 3.7 mph 3.7 mph 55 % 0.0 in
12:54 12.9 °F 4.1 °F 1026.0 in East 3.7 mph 3.7 mph 55 % 0.0 in
12:59 13.0 °F 4.2 °F 1026.0 in ENE 5.6 mph 5.6 mph 55 % 0.0 in
13:04 13.2 °F 4.3 °F 1026.0 in ENE 5.6 mph 5.6 mph 55 % 0.0 in
13:09 13.2 °F 4.1 °F 1026.0 in ENE 7.4 mph 7.4 mph 54 % 0.0 in
13:14 13.3 °F 4.2 °F 1026.0 in NE 7.4 mph 7.4 mph 54 % 0.0 in
13:19 13.4 °F 4.3 °F 1026.0 in East 5.6 mph 5.6 mph 54 % 0.0 in
13:24 13.6 °F 4.2 °F 1026.0 in SE 5.6 mph 5.6 mph 53 % 0.0 in
13:29 13.9 °F 4.4 °F 1026.0 in ENE 5.0 mph 5.0 mph 53 % 0.0 in
13:34 14.0 °F 4.6 °F 1026.0 in ESE 3.7 mph 3.9 mph 53 % 0.0 in
13:39 14.1 °F 4.7 °F 1024.9 in NNE 5.6 mph 5.6 mph 53 % 0.0 in
13:44 14.2 °F 4.7 °F 1024.9 in NE 3.7 mph 3.7 mph 53 % 0.0 in
13:49 14.3 °F 4.8 °F 1024.9 in NE 7.4 mph 7.4 mph 53 % 0.0 in
13:54 14.3 °F 4.8 °F 1023.9 in ENE 7.4 mph 7.4 mph 53 % 0.0 in
13:59 14.3 °F 4.6 °F 1023.9 in NNE 3.7 mph 3.7 mph 52 % 0.0 in
14:04 14.5 °F 4.8 °F 1023.9 in North 4.2 mph 4.2 mph 52 % 0.0 in
14:09 14.7 °F 4.9 °F 1024.9 in East 3.7 mph 3.7 mph 52 % 0.0 in
14:14 14.8 °F 5.1 °F 1024.9 in East 3.7 mph 3.7 mph 52 % 0.0 in
14:19 14.7 °F 4.7 °F 1024.9 in ENE 3.7 mph 3.9 mph 51 % 0.0 in
14:24 14.8 °F 5.1 °F 1024.9 in ENE 3.7 mph 3.7 mph 52 % 0.0 in
14:29 14.8 °F 5.1 °F 1024.9 in NNE 3.7 mph 3.7 mph 52 % 0.0 in
14:34 14.8 °F 5.1 °F 1024.9 in WSW 5.6 mph 5.6 mph 52 % 0.0 in
14:39 14.9 °F 4.8 °F 1024.9 in West 6.1 mph 6.1 mph 51 % 0.0 in
14:44 15.0 °F 4.9 °F 1024.9 in WNW 7.9 mph 7.9 mph 51 % 0.0 in
14:49 15.0 °F 4.9 °F 1024.9 in SW 7.4 mph 7.4 mph 51 % 0.0 in
14:54 14.9 °F 4.6 °F 1024.9 in West 11.1 mph 11.1 mph 50 % 0.0 in
14:59 14.8 °F 4.2 °F 1024.9 in WNW 9.3 mph 9.3 mph 49 % 0.0 in
15:04 14.7 °F 4.4 °F 1024.9 in WNW 9.5 mph 9.5 mph 50 % 0.0 in
15:09 14.6 °F 3.7 °F 1024.9 in NNE 11.1 mph 11.1 mph 48 % 0.0 in
15:14 14.5 °F 3.3 °F 1024.9 in NW 11.1 mph 11.1 mph 47 % 0.0 in
15:19 14.4 °F 3.2 °F 1024.9 in WSW 5.6 mph 5.6 mph 47 % 0.0 in
15:24 14.3 °F 3.1 °F 1024.9 in WNW 11.1 mph 11.1 mph 47 % 0.0 in
15:29 14.3 °F 3.1 °F 1024.9 in WSW 3.7 mph 3.7 mph 47 % 0.0 in
15:34 14.2 °F 3.1 °F 1024.9 in West 11.1 mph 11.1 mph 47 % 0.0 in
15:39 14.1 °F 2.9 °F 1024.9 in West 6.9 mph 6.9 mph 47 % 0.0 in
15:44 13.9 °F 2.8 °F 1024.9 in WSW 5.6 mph 5.6 mph 47 % 0.0 in
15:49 13.8 °F 2.7 °F 1024.9 in West 3.7 mph 3.7 mph 47 % 0.0 in
15:54 13.8 °F 2.7 °F 1024.9 in West 3.7 mph 3.9 mph 47 % 0.0 in
15:59 13.7 °F 2.6 °F 1024.9 in SW 7.4 mph 7.4 mph 47 % 0.0 in
16:04 13.7 °F 2.6 °F 1026.0 in WSW 9.3 mph 9.3 mph 47 % 0.0 in
16:09 13.7 °F 2.6 °F 1026.0 in West 4.7 mph   47 % 0.0 in
16:14 13.6 °F 2.5 °F 1026.0 in North 3.7 mph 3.7 mph 47 % 0.0 in
16:19 13.5 °F 2.4 °F 1026.0 in WNW 4.2 mph 4.2 mph 47 % 0.0 in
16:24 13.5 °F 2.4 °F 1026.0 in NNW 3.7 mph 3.7 mph 47 % 0.0 in
16:29 13.4 °F 2.3 °F 1026.0 in West 5.6 mph 5.6 mph 47 % 0.0 in
16:34 13.3 °F 2.2 °F 1026.0 in WSW 3.7 mph 3.7 mph 47 % 0.0 in
16:39 13.2 °F 2.1 °F 1026.0 in SW 4.2 mph 4.2 mph 47 % 0.0 in
16:44 13.2 °F 2.1 °F 1026.0 in West 2.6 mph   47 % 0.0 in
16:49 13.1 °F 2.1 °F 1026.0 in WSW 1.9 mph   47 % 0.0 in
16:54 13.0 °F 1.9 °F 1026.0 in SW 4.2 mph 4.2 mph 47 % 0.0 in
16:59 12.8 °F 1.8 °F 1026.0 in WSW 3.9 mph 3.9 mph 47 % 0.0 in
17:04 12.6 °F 1.9 °F 1024.9 in WSW 3.9 mph 3.9 mph 48 % 0.0 in
17:09 12.4 °F 1.7 °F 1024.9 in West 3.7 mph 3.7 mph 48 % 0.0 in
17:14 12.3 °F 1.6 °F 1024.9 in WSW 3.5 mph 3.5 mph 48 % 0.0 in
17:19 12.3 °F 1.6 °F 1026.0 in SW 1.9 mph   48 % 0.0 in
17:24 12.2 °F 1.5 °F 1026.0 in SW 2.6 mph   48 % 0.0 in
17:29 12.0 °F 1.3 °F 1026.0 in SW 3.7 mph 3.7 mph 48 % 0.0 in
17:34 11.8 °F 1.1 °F 1024.9 in SW 3.9 mph 3.9 mph 48 % 0.0 in
17:39 11.7 °F 1.3 °F 1024.9 in WSW 1.9 mph 2.3 mph 49 % 0.0 in
17:44 11.7 °F 1.3 °F 1024.9 in SW 3.7 mph 3.9 mph 49 % 0.0 in
17:49 11.7 °F 1.3 °F 1024.9 in WSW 3.7 mph 3.7 mph 49 % 0.0 in
17:54 11.7 °F 1.3 °F 1024.9 in West 3.7 mph 3.7 mph 49 % 0.0 in
17:59 11.7 °F 1.3 °F 1024.9 in WSW 3.7 mph 3.7 mph 49 % 0.0 in
18:04 11.7 °F 1.1 °F 1024.9 in West 3.7 mph 3.7 mph 48 % 0.0 in
18:09 11.7 °F 1.1 °F 1024.9 in West 1.9 mph 1.9 mph 48 % 0.0 in
18:14 11.6 °F 0.9 °F 1024.9 in Calm     48 % 0.0 in
18:19 11.5 °F 1.2 °F 1024.9 in Calm     49 % 0.0 in
18:24 11.4 °F 0.8 °F 1024.9 in West 1.9 mph 1.9 mph 48 % 0.0 in
18:29 11.3 °F 0.9 °F 1024.9 in Calm     49 % 0.0 in
18:34 11.2 °F 0.9 °F 1026.0 in Calm     49 % 0.0 in
18:39 11.0 °F 0.7 °F 1026.0 in Calm     49 % 0.0 in
18:40 11.0 °F 0.7 °F 1026.0 in Calm     49 % 0.0 in
18:45 10.9 °F 0.6 °F 1026.0 in Calm     49 % 0.0 in
18:50 10.9 °F 0.6 °F 1026.0 in NE 2.6 mph 2.6 mph 49 % 0.0 in
18:55 11.0 °F 0.9 °F 1026.0 in NE 1.6 mph 3.2 mph 50 % 0.0 in
19:00 11.1 °F 0.8 °F 1026.0 in ENE 1.9 mph   49 % 0.0 in
19:05 11.1 °F 1.1 °F 1026.0 in Calm     50 % 0.0 in
19:10 10.9 °F 0.9 °F 1026.0 in Calm     50 % 0.0 in
19:15 10.7 °F 0.7 °F 1026.0 in West 3.7 mph 3.7 mph 50 % 0.0 in
19:20 10.7 °F 0.7 °F 1026.0 in Calm     50 % 0.0 in
19:25 10.6 °F 0.6 °F 1026.0 in West 1.9 mph 1.9 mph 50 % 0.0 in
19:30 10.6 °F 0.6 °F 1026.0 in Calm     50 % 0.0 in
19:35 10.6 °F 0.9 °F 1026.0 in NE 2.3 mph   51 % 0.0 in
19:40 10.4 °F 0.7 °F 1026.0 in ENE 3.7 mph 3.7 mph 51 % 0.0 in
19:45 10.3 °F 0.6 °F 1026.0 in Calm     51 % 0.0 in
19:50 10.4 °F 0.7 °F 1026.0 in Calm     51 % 0.0 in
19:55 10.4 °F 0.7 °F 1026.0 in Calm     51 % 0.0 in
20:00 10.4 °F 0.7 °F 1026.0 in Calm     51 % 0.0 in
20:05 10.3 °F 0.6 °F 1026.0 in Calm     51 % 0.0 in
20:10 10.0 °F 0.3 °F 1026.0 in ENE 1.4 mph   51 % 0.0 in
20:15 10.0 °F 0.3 °F 1026.0 in ENE 1.9 mph 1.9 mph 51 % 0.0 in
20:20 10.0 °F 0.3 °F 1026.0 in Calm     51 % 0.0 in
20:25 10.0 °F 0.6 °F 1026.0 in Calm     52 % 0.0 in
20:30 9.9 °F 0.5 °F 1026.0 in ENE 1.9 mph 1.9 mph 52 % 0.0 in
20:35 9.9 °F 0.5 °F 1026.0 in Calm     52 % 0.0 in
20:40 9.9 °F 0.5 °F 1026.0 in WSW 5.6 mph 5.6 mph 52 % 0.0 in
20:45 9.8 °F 0.4 °F 1026.0 in WSW 3.7 mph 3.7 mph 52 % 0.0 in
20:50 9.9 °F 0.5 °F 1026.0 in WSW 3.9 mph 3.9 mph 52 % 0.0 in
20:55 9.9 °F 0.5 °F 1026.0 in West 3.9 mph 3.9 mph 52 % 0.0 in
21:00 9.8 °F 0.4 °F 1026.0 in West 3.7 mph 3.7 mph 52 % 0.0 in
21:05 9.7 °F 0.3 °F 1026.0 in West 1.9 mph 1.9 mph 52 % 0.0 in
21:10 9.8 °F 0.4 °F 1026.0 in West 1.9 mph 1.9 mph 52 % 0.0 in
21:15 9.9 °F 0.5 °F 1026.0 in West 1.9 mph 1.9 mph 52 % 0.0 in
21:20 9.9 °F 0.5 °F 1026.0 in Calm     52 % 0.0 in
21:25 9.5 °F 0.1 °F 1026.0 in ENE 2.6 mph 2.6 mph 52 % 0.0 in
21:30 9.3 °F 0.2 °F 1026.0 in ENE 1.9 mph 1.9 mph 53 % 0.0 in
21:35 9.1 °F 0.0 °F 1026.0 in East 1.9 mph 1.9 mph 53 % 0.0 in
21:40 9.0 °F 0.2 °F 1026.0 in Calm     54 % 0.0 in
21:45 8.9 °F 0.1 °F 1026.0 in Calm     54 % 0.0 in
21:50 8.7 °F 0.2 °F 1024.9 in East 1.9 mph 1.9 mph 55 % 0.0 in
21:55 8.6 °F 0.1 °F 1024.9 in ENE 3.7 mph 3.7 mph 55 % 0.0 in
22:00 8.5 °F 0.2 °F 1024.9 in Calm     56 % 0.0 in
22:05 8.5 °F 0.2 °F 1026.0 in Calm     56 % 0.0 in
22:10 8.5 °F 0.2 °F 1026.0 in Calm     56 % 0.0 in
22:15 8.5 °F 0.2 °F 1026.0 in NE 2.3 mph 2.3 mph 56 % 0.0 in
22:20 8.4 °F 0.1 °F 1026.0 in NE 2.3 mph   56 % 0.0 in
22:25 8.2 °F 0.2 °F 1026.0 in Calm     57 % 0.0 in
22:30 8.2 °F 0.2 °F 1026.0 in Calm     57 % 0.0 in
22:35 8.2 °F 0.2 °F 1026.0 in WNW 1.9 mph 2.3 mph 57 % 0.0 in
22:40 8.3 °F 0.3 °F 1026.0 in WNW 1.9 mph   57 % 0.0 in
22:45 8.1 °F 0.1 °F 1026.0 in NE 5.6 mph 5.6 mph 57 % 0.0 in
22:50 7.8 °F 0.1 °F 1026.0 in NE 1.9 mph   58 % 0.0 in
22:51 7.9 °F 0.1 °F 1026.0 in NE 1.9 mph 1.9 mph 58 % 0.0 in
22:56 7.9 °F 0.1 °F 1026.0 in NE 2.3 mph 2.3 mph 58 % 0.0 in
23:01 7.9 °F 0.1 °F 1026.0 in NE 1.9 mph   58 % 0.0 in
23:06 7.8 °F 0.1 °F 1024.9 in WNW 3.7 mph 3.7 mph 58 % 0.0 in
23:11 7.7 °F 0.2 °F 1024.9 in WNW 1.9 mph   59 % 0.0 in
23:16 7.6 °F 0.1 °F 1024.9 in West 2.3 mph 2.3 mph 59 % 0.0 in
23:21 7.5 °F 0.0 °F 1026.0 in WSW 3.7 mph 3.7 mph 59 % 0.0 in
23:26 7.2 °F -0.3 °F 1026.0 in WSW 3.7 mph 3.7 mph 59 % 0.0 in
23:31 7.2 °F -0.1 °F 1026.0 in WSW 3.7 mph 3.7 mph 60 % 0.0 in
23:36 7.0 °F -0.2 °F 1026.0 in SW 1.9 mph   60 % 0.0 in
23:41 7.0 °F -0.2 °F 1026.0 in SW 2.3 mph 2.3 mph 60 % 0.0 in
23:46 7.0 °F -0.2 °F 1026.0 in SW 3.7 mph 3.7 mph 60 % 0.0 in
23:51 7.1 °F -0.2 °F 1026.0 in West 1.9 mph 1.9 mph 60 % 0.0 in
23:56 7.2 °F -0.1 °F 1026.0 in West 1.9 mph   60 % 0.0 in
Meteo Sesrovires
Elogis d' Weather Underground - 2 mb

Guio original per  Jim McMurry - jmcmurry@mwt.net Adaptat per a la plantilla per  Wim van der Kuil - Leuven-Template.eu

Trobareu la nostra informacio del temps tambe a:

Weather Underground

AWEKAS